sensor_id;sensor_type;location;lat;lon;timestamp;P1;durP1;ratioP1;P2;durP2;ratioP2
11125;SDS011;5617;54.046;10.676;2023-10-09T00:00:23;1.70;;;1.00;;
11125;SDS011;5617;54.046;10.676;2023-10-09T00:02:56;3.13;;;1.00;;
11125;SDS011;5617;54.046;10.676;2023-10-09T00:05:07;1.40;;;1.00;;
11125;SDS011;5617;54.046;10.676;2023-10-09T00:07:25;1.57;;;1.00;;
11125;SDS011;5617;54.046;10.676;2023-10-09T00:09:36;1.93;;;1.00;;
11125;SDS011;5617;54.046;10.676;2023-10-09T00:11:52;0.97;;;0.93;;
11125;SDS011;5617;54.046;10.676;2023-10-09T00:14:04;1.10;;;1.00;;
11125;SDS011;5617;54.046;10.676;2023-10-09T00:16:12;1.43;;;0.97;;
11125;SDS011;5617;54.046;10.676;2023-10-09T00:18:20;2.17;;;0.97;;
11125;SDS011;5617;54.046;10.676;2023-10-09T00:20:36;1.17;;;1.00;;
11125;SDS011;5617;54.046;10.676;2023-10-09T00:22:49;0.87;;;0.87;;
11125;SDS011;5617;54.046;10.676;2023-10-09T00:24:58;0.90;;;0.90;;
11125;SDS011;5617;54.046;10.676;2023-10-09T00:27:18;1.00;;;0.90;;
11125;SDS011;5617;54.046;10.676;2023-10-09T00:29:33;1.77;;;1.10;;
11125;SDS011;5617;54.046;10.676;2023-10-09T00:31:49;1.87;;;0.90;;
11125;SDS011;5617;54.046;10.676;2023-10-09T00:34:12;2.23;;;0.97;;
11125;SDS011;5617;54.046;10.676;2023-10-09T00:36:25;1.00;;;0.87;;
11125;SDS011;5617;54.046;10.676;2023-10-09T00:38:35;1.43;;;0.90;;
11125;SDS011;5617;54.046;10.676;2023-10-09T00:40:45;1.30;;;0.80;;
11125;SDS011;5617;54.046;10.676;2023-10-09T00:43:02;1.53;;;1.10;;
11125;SDS011;5617;54.046;10.676;2023-10-09T00:45:14;1.83;;;1.00;;
11125;SDS011;5617;54.046;10.676;2023-10-09T00:47:31;1.00;;;0.90;;
11125;SDS011;5617;54.046;10.676;2023-10-09T00:49:41;1.80;;;0.93;;
11125;SDS011;5617;54.046;10.676;2023-10-09T00:51:50;1.00;;;0.70;;
11125;SDS011;5617;54.046;10.676;2023-10-09T00:54:03;0.90;;;0.80;;
11125;SDS011;5617;54.046;10.676;2023-10-09T00:56:21;1.50;;;1.00;;
11125;SDS011;5617;54.046;10.676;2023-10-09T00:58:35;1.23;;;0.87;;
11125;SDS011;5617;54.046;10.676;2023-10-09T01:00:44;1.23;;;1.00;;
11125;SDS011;5617;54.046;10.676;2023-10-09T01:02:58;1.33;;;0.93;;
11125;SDS011;5617;54.046;10.676;2023-10-09T01:05:26;1.80;;;1.10;;
11125;SDS011;5617;54.046;10.676;2023-10-09T01:07:34;2.23;;;1.00;;
11125;SDS011;5617;54.046;10.676;2023-10-09T01:09:43;1.27;;;0.90;;
11125;SDS011;5617;54.046;10.676;2023-10-09T01:11:52;1.00;;;0.90;;
11125;SDS011;5617;54.046;10.676;2023-10-09T01:14:10;1.57;;;1.00;;
11125;SDS011;5617;54.046;10.676;2023-10-09T01:16:22;0.73;;;0.73;;
11125;SDS011;5617;54.046;10.676;2023-10-09T01:18:30;1.60;;;0.80;;
11125;SDS011;5617;54.046;10.676;2023-10-09T01:20:43;0.77;;;0.73;;
11125;SDS011;5617;54.046;10.676;2023-10-09T01:22:51;0.80;;;0.80;;
11125;SDS011;5617;54.046;10.676;2023-10-09T01:25:00;0.80;;;0.80;;
11125;SDS011;5617;54.046;10.676;2023-10-09T01:27:12;1.80;;;1.10;;
11125;SDS011;5617;54.046;10.676;2023-10-09T01:29:21;1.17;;;1.00;;
11125;SDS011;5617;54.046;10.676;2023-10-09T01:31:33;2.53;;;1.00;;
11125;SDS011;5617;54.046;10.676;2023-10-09T01:33:44;1.10;;;0.90;;
11125;SDS011;5617;54.046;10.676;2023-10-09T01:35:52;1.57;;;0.93;;
11125;SDS011;5617;54.046;10.676;2023-10-09T01:38:05;1.30;;;1.13;;
11125;SDS011;5617;54.046;10.676;2023-10-09T01:40:20;1.00;;;0.87;;
11125;SDS011;5617;54.046;10.676;2023-10-09T01:42:33;1.70;;;0.90;;
11125;SDS011;5617;54.046;10.676;2023-10-09T01:44:40;2.07;;;1.03;;
11125;SDS011;5617;54.046;10.676;2023-10-09T01:46:50;1.43;;;1.00;;
11125;SDS011;5617;54.046;10.676;2023-10-09T01:49:00;1.33;;;0.90;;
11125;SDS011;5617;54.046;10.676;2023-10-09T01:51:14;3.20;;;1.00;;
11125;SDS011;5617;54.046;10.676;2023-10-09T01:53:24;0.97;;;0.90;;
11125;SDS011;5617;54.046;10.676;2023-10-09T01:55:37;1.33;;;0.80;;
11125;SDS011;5617;54.046;10.676;2023-10-09T01:57:46;1.83;;;1.00;;
11125;SDS011;5617;54.046;10.676;2023-10-09T01:59:53;2.67;;;1.00;;
11125;SDS011;5617;54.046;10.676;2023-10-09T02:02:03;0.87;;;0.70;;
11125;SDS011;5617;54.046;10.676;2023-10-09T02:04:20;1.10;;;1.00;;
11125;SDS011;5617;54.046;10.676;2023-10-09T02:06:28;1.57;;;1.00;;
11125;SDS011;5617;54.046;10.676;2023-10-09T02:08:38;2.00;;;1.00;;
11125;SDS011;5617;54.046;10.676;2023-10-09T02:10:54;2.47;;;1.00;;
11125;SDS011;5617;54.046;10.676;2023-10-09T02:13:04;1.20;;;1.00;;
11125;SDS011;5617;54.046;10.676;2023-10-09T02:15:15;1.37;;;0.90;;
11125;SDS011;5617;54.046;10.676;2023-10-09T02:17:22;2.50;;;1.10;;
11125;SDS011;5617;54.046;10.676;2023-10-09T02:19:35;1.00;;;0.80;;
11125;SDS011;5617;54.046;10.676;2023-10-09T02:21:46;1.33;;;0.90;;
11125;SDS011;5617;54.046;10.676;2023-10-09T02:23:54;1.30;;;0.90;;
11125;SDS011;5617;54.046;10.676;2023-10-09T02:26:05;2.60;;;1.00;;
11125;SDS011;5617;54.046;10.676;2023-10-09T02:28:14;1.43;;;1.33;;
11125;SDS011;5617;54.046;10.676;2023-10-09T02:30:24;3.37;;;1.30;;
11125;SDS011;5617;54.046;10.676;2023-10-09T02:32:35;1.43;;;1.10;;
11125;SDS011;5617;54.046;10.676;2023-10-09T02:34:42;1.70;;;1.00;;
11125;SDS011;5617;54.046;10.676;2023-10-09T02:36:53;1.27;;;1.10;;
11125;SDS011;5617;54.046;10.676;2023-10-09T02:39:10;1.60;;;1.00;;
11125;SDS011;5617;54.046;10.676;2023-10-09T02:41:30;2.00;;;1.20;;
11125;SDS011;5617;54.046;10.676;2023-10-09T02:43:40;2.00;;;0.90;;
11125;SDS011;5617;54.046;10.676;2023-10-09T02:45:52;1.23;;;1.10;;
11125;SDS011;5617;54.046;10.676;2023-10-09T02:48:00;2.37;;;1.10;;
11125;SDS011;5617;54.046;10.676;2023-10-09T02:50:16;0.93;;;0.83;;
11125;SDS011;5617;54.046;10.676;2023-10-09T02:52:28;3.30;;;1.03;;
11125;SDS011;5617;54.046;10.676;2023-10-09T02:54:40;1.70;;;1.03;;
11125;SDS011;5617;54.046;10.676;2023-10-09T02:56:50;1.20;;;1.00;;
11125;SDS011;5617;54.046;10.676;2023-10-09T02:59:11;1.27;;;1.00;;
11125;SDS011;5617;54.046;10.676;2023-10-09T03:01:19;2.70;;;1.30;;
11125;SDS011;5617;54.046;10.676;2023-10-09T03:03:27;1.83;;;1.10;;
11125;SDS011;5617;54.046;10.676;2023-10-09T03:05:35;1.63;;;1.40;;
11125;SDS011;5617;54.046;10.676;2023-10-09T03:07:48;1.47;;;0.90;;
11125;SDS011;5617;54.046;10.676;2023-10-09T03:09:58;1.00;;;1.00;;
11125;SDS011;5617;54.046;10.676;2023-10-09T03:12:07;1.47;;;0.90;;
11125;SDS011;5617;54.046;10.676;2023-10-09T03:14:19;1.70;;;1.37;;
11125;SDS011;5617;54.046;10.676;2023-10-09T03:16:32;2.20;;;1.00;;
11125;SDS011;5617;54.046;10.676;2023-10-09T03:18:41;1.20;;;1.10;;
11125;SDS011;5617;54.046;10.676;2023-10-09T03:20:50;2.70;;;1.30;;
11125;SDS011;5617;54.046;10.676;2023-10-09T03:22:58;2.40;;;1.10;;
11125;SDS011;5617;54.046;10.676;2023-10-09T03:25:07;2.40;;;1.10;;
11125;SDS011;5617;54.046;10.676;2023-10-09T03:27:18;2.87;;;1.43;;
11125;SDS011;5617;54.046;10.676;2023-10-09T03:29:26;2.23;;;1.50;;
11125;SDS011;5617;54.046;10.676;2023-10-09T03:31:34;1.63;;;0.97;;
11125;SDS011;5617;54.046;10.676;2023-10-09T03:33:43;1.70;;;1.00;;
11125;SDS011;5617;54.046;10.676;2023-10-09T03:35:51;1.97;;;1.17;;
11125;SDS011;5617;54.046;10.676;2023-10-09T03:37:58;1.20;;;1.10;;
11125;SDS011;5617;54.046;10.676;2023-10-09T03:40:16;1.90;;;0.90;;
11125;SDS011;5617;54.046;10.676;2023-10-09T03:42:25;2.50;;;1.10;;
11125;SDS011;5617;54.046;10.676;2023-10-09T03:44:33;1.23;;;1.00;;
11125;SDS011;5617;54.046;10.676;2023-10-09T03:46:48;2.80;;;1.20;;
11125;SDS011;5617;54.046;10.676;2023-10-09T03:48:57;1.20;;;1.00;;
11125;SDS011;5617;54.046;10.676;2023-10-09T03:51:06;1.77;;;1.10;;
11125;SDS011;5617;54.046;10.676;2023-10-09T03:53:17;2.90;;;1.00;;
11125;SDS011;5617;54.046;10.676;2023-10-09T03:55:25;2.17;;;1.50;;
11125;SDS011;5617;54.046;10.676;2023-10-09T03:57:35;0.97;;;0.83;;
11125;SDS011;5617;54.046;10.676;2023-10-09T03:59:45;1.77;;;1.00;;
11125;SDS011;5617;54.046;10.676;2023-10-09T04:01:53;1.90;;;1.20;;
11125;SDS011;5617;54.046;10.676;2023-10-09T04:04:03;1.90;;;1.30;;
11125;SDS011;5617;54.046;10.676;2023-10-09T04:06:16;1.77;;;1.20;;
11125;SDS011;5617;54.046;10.676;2023-10-09T04:08:23;2.17;;;1.40;;
11125;SDS011;5617;54.046;10.676;2023-10-09T04:10:36;1.60;;;1.40;;
11125;SDS011;5617;54.046;10.676;2023-10-09T04:13:04;1.30;;;1.20;;
11125;SDS011;5617;54.046;10.676;2023-10-09T04:15:17;2.97;;;1.23;;
11125;SDS011;5617;54.046;10.676;2023-10-09T04:17:29;2.27;;;1.40;;
11125;SDS011;5617;54.046;10.676;2023-10-09T04:19:39;2.10;;;1.60;;
11125;SDS011;5617;54.046;10.676;2023-10-09T04:21:54;1.93;;;1.50;;
11125;SDS011;5617;54.046;10.676;2023-10-09T04:24:05;2.07;;;1.70;;
11125;SDS011;5617;54.046;10.676;2023-10-09T04:26:28;3.33;;;1.60;;
11125;SDS011;5617;54.046;10.676;2023-10-09T04:28:40;2.03;;;1.50;;
11125;SDS011;5617;54.046;10.676;2023-10-09T04:30:48;1.67;;;1.57;;
11125;SDS011;5617;54.046;10.676;2023-10-09T04:33:01;2.33;;;1.30;;
11125;SDS011;5617;54.046;10.676;2023-10-09T04:35:17;2.13;;;1.70;;
11125;SDS011;5617;54.046;10.676;2023-10-09T04:37:30;3.10;;;1.60;;
11125;SDS011;5617;54.046;10.676;2023-10-09T04:39:43;3.23;;;1.53;;
11125;SDS011;5617;54.046;10.676;2023-10-09T04:41:53;3.23;;;1.70;;
11125;SDS011;5617;54.046;10.676;2023-10-09T04:44:22;2.43;;;1.57;;
11125;SDS011;5617;54.046;10.676;2023-10-09T04:46:41;3.37;;;1.93;;
11125;SDS011;5617;54.046;10.676;2023-10-09T04:48:50;3.93;;;2.03;;
11125;SDS011;5617;54.046;10.676;2023-10-09T04:50:58;1.97;;;1.80;;
11125;SDS011;5617;54.046;10.676;2023-10-09T04:53:26;2.27;;;1.63;;
11125;SDS011;5617;54.046;10.676;2023-10-09T04:55:45;2.43;;;1.93;;
11125;SDS011;5617;54.046;10.676;2023-10-09T04:58:00;2.53;;;2.00;;
11125;SDS011;5617;54.046;10.676;2023-10-09T05:00:11;2.40;;;2.20;;
11125;SDS011;5617;54.046;10.676;2023-10-09T05:02:29;2.30;;;2.07;;
11125;SDS011;5617;54.046;10.676;2023-10-09T05:04:43;2.43;;;2.00;;
11125;SDS011;5617;54.046;10.676;2023-10-09T05:06:54;4.00;;;2.10;;
11125;SDS011;5617;54.046;10.676;2023-10-09T05:09:01;2.20;;;2.00;;
11125;SDS011;5617;54.046;10.676;2023-10-09T05:11:23;3.10;;;2.00;;
11125;SDS011;5617;54.046;10.676;2023-10-09T05:13:48;4.63;;;2.30;;
11125;SDS011;5617;54.046;10.676;2023-10-09T05:16:18;2.87;;;2.10;;
11125;SDS011;5617;54.046;10.676;2023-10-09T05:18:31;2.57;;;2.27;;
11125;SDS011;5617;54.046;10.676;2023-10-09T05:20:43;2.57;;;2.37;;
11125;SDS011;5617;54.046;10.676;2023-10-09T05:23:05;2.23;;;2.00;;
11125;SDS011;5617;54.046;10.676;2023-10-09T05:25:29;4.00;;;2.47;;
11125;SDS011;5617;54.046;10.676;2023-10-09T05:27:55;5.13;;;2.47;;
11125;SDS011;5617;54.046;10.676;2023-10-09T05:30:23;2.97;;;2.67;;
11125;SDS011;5617;54.046;10.676;2023-10-09T05:32:34;2.87;;;2.50;;
11125;SDS011;5617;54.046;10.676;2023-10-09T05:34:54;4.47;;;2.53;;
11125;SDS011;5617;54.046;10.676;2023-10-09T05:37:22;3.13;;;2.70;;
11125;SDS011;5617;54.046;10.676;2023-10-09T05:39:31;3.60;;;3.00;;
11125;SDS011;5617;54.046;10.676;2023-10-09T05:41:47;4.17;;;3.17;;
11125;SDS011;5617;54.046;10.676;2023-10-09T05:44:06;3.47;;;2.90;;
11125;SDS011;5617;54.046;10.676;2023-10-09T05:46:30;3.20;;;2.90;;
11125;SDS011;5617;54.046;10.676;2023-10-09T05:48:43;3.20;;;2.90;;
11125;SDS011;5617;54.046;10.676;2023-10-09T05:51:10;3.67;;;3.20;;
11125;SDS011;5617;54.046;10.676;2023-10-09T05:53:25;3.50;;;3.20;;
11125;SDS011;5617;54.046;10.676;2023-10-09T05:55:52;4.30;;;3.30;;
11125;SDS011;5617;54.046;10.676;2023-10-09T05:58:18;4.00;;;3.17;;
11125;SDS011;5617;54.046;10.676;2023-10-09T06:00:43;3.60;;;3.20;;
11125;SDS011;5617;54.046;10.676;2023-10-09T06:03:08;4.00;;;3.30;;
11125;SDS011;5617;54.046;10.676;2023-10-09T06:05:46;4.90;;;3.20;;
11125;SDS011;5617;54.046;10.676;2023-10-09T06:08:08;4.10;;;3.10;;
11125;SDS011;5617;54.046;10.676;2023-10-09T06:10:19;3.40;;;3.10;;
11125;SDS011;5617;54.046;10.676;2023-10-09T06:12:43;4.90;;;3.70;;
11125;SDS011;5617;54.046;10.676;2023-10-09T06:15:01;3.57;;;3.27;;
11125;SDS011;5617;54.046;10.676;2023-10-09T06:17:24;4.10;;;3.20;;
11125;SDS011;5617;54.046;10.676;2023-10-09T06:19:49;3.40;;;3.07;;
11125;SDS011;5617;54.046;10.676;2023-10-09T06:22:06;3.30;;;3.00;;
11125;SDS011;5617;54.046;10.676;2023-10-09T06:24:31;4.30;;;2.80;;
11125;SDS011;5617;54.046;10.676;2023-10-09T06:26:47;4.13;;;3.30;;
11125;SDS011;5617;54.046;10.676;2023-10-09T06:29:18;4.17;;;3.10;;
11125;SDS011;5617;54.046;10.676;2023-10-09T06:31:41;3.77;;;2.70;;
11125;SDS011;5617;54.046;10.676;2023-10-09T06:34:05;3.80;;;2.93;;
11125;SDS011;5617;54.046;10.676;2023-10-09T06:36:15;4.67;;;3.03;;
11125;SDS011;5617;54.046;10.676;2023-10-09T06:38:25;3.17;;;2.87;;
11125;SDS011;5617;54.046;10.676;2023-10-09T06:40:39;3.40;;;2.60;;
11125;SDS011;5617;54.046;10.676;2023-10-09T06:43:05;5.40;;;2.70;;
11125;SDS011;5617;54.046;10.676;2023-10-09T06:45:15;3.90;;;2.60;;
11125;SDS011;5617;54.046;10.676;2023-10-09T06:47:27;3.13;;;2.50;;
11125;SDS011;5617;54.046;10.676;2023-10-09T06:49:34;3.33;;;2.60;;
11125;SDS011;5617;54.046;10.676;2023-10-09T06:51:44;3.37;;;2.67;;
11125;SDS011;5617;54.046;10.676;2023-10-09T06:53:55;3.93;;;2.40;;
11125;SDS011;5617;54.046;10.676;2023-10-09T06:56:12;3.83;;;2.43;;
11125;SDS011;5617;54.046;10.676;2023-10-09T06:58:36;2.10;;;1.90;;
11125;SDS011;5617;54.046;10.676;2023-10-09T07:00:49;4.30;;;1.97;;
11125;SDS011;5617;54.046;10.676;2023-10-09T07:03:21;3.40;;;2.20;;
11125;SDS011;5617;54.046;10.676;2023-10-09T07:05:36;2.67;;;2.00;;
11125;SDS011;5617;54.046;10.676;2023-10-09T07:07:54;2.47;;;1.77;;
11125;SDS011;5617;54.046;10.676;2023-10-09T07:10:23;3.03;;;2.00;;
11125;SDS011;5617;54.046;10.676;2023-10-09T07:12:39;2.67;;;1.60;;
11125;SDS011;5617;54.046;10.676;2023-10-09T07:14:51;2.73;;;1.90;;
11125;SDS011;5617;54.046;10.676;2023-10-09T07:17:24;2.23;;;1.60;;
11125;SDS011;5617;54.046;10.676;2023-10-09T07:19:51;3.63;;;1.90;;
11125;SDS011;5617;54.046;10.676;2023-10-09T07:22:42;2.53;;;1.57;;
11125;SDS011;5617;54.046;10.676;2023-10-09T07:25:00;2.20;;;1.40;;
11125;SDS011;5617;54.046;10.676;2023-10-09T07:27:22;2.27;;;1.50;;
11125;SDS011;5617;54.046;10.676;2023-10-09T07:29:49;1.80;;;1.30;;
11125;SDS011;5617;54.046;10.676;2023-10-09T07:31:57;2.03;;;1.60;;
11125;SDS011;5617;54.046;10.676;2023-10-09T07:34:18;2.80;;;1.40;;
11125;SDS011;5617;54.046;10.676;2023-10-09T07:36:37;3.10;;;1.60;;
11125;SDS011;5617;54.046;10.676;2023-10-09T07:38:47;2.30;;;1.27;;
11125;SDS011;5617;54.046;10.676;2023-10-09T07:41:01;1.37;;;1.27;;
11125;SDS011;5617;54.046;10.676;2023-10-09T07:43:25;2.23;;;1.10;;
11125;SDS011;5617;54.046;10.676;2023-10-09T07:45:41;1.63;;;1.27;;
11125;SDS011;5617;54.046;10.676;2023-10-09T07:48:21;2.30;;;1.37;;
11125;SDS011;5617;54.046;10.676;2023-10-09T07:50:35;1.67;;;1.30;;
11125;SDS011;5617;54.046;10.676;2023-10-09T07:52:47;1.80;;;1.40;;
11125;SDS011;5617;54.046;10.676;2023-10-09T07:54:55;2.67;;;1.20;;
11125;SDS011;5617;54.046;10.676;2023-10-09T07:57:10;2.73;;;1.40;;
11125;SDS011;5617;54.046;10.676;2023-10-09T07:59:23;2.10;;;1.23;;
11125;SDS011;5617;54.046;10.676;2023-10-09T08:01:31;2.67;;;1.30;;
11125;SDS011;5617;54.046;10.676;2023-10-09T08:03:43;2.23;;;1.20;;
11125;SDS011;5617;54.046;10.676;2023-10-09T08:05:57;2.23;;;1.20;;
11125;SDS011;5617;54.046;10.676;2023-10-09T08:08:13;1.10;;;1.00;;
11125;SDS011;5617;54.046;10.676;2023-10-09T08:10:45;1.70;;;1.20;;
11125;SDS011;5617;54.046;10.676;2023-10-09T08:13:11;1.40;;;1.20;;
11125;SDS011;5617;54.046;10.676;2023-10-09T08:15:43;1.57;;;1.30;;
11125;SDS011;5617;54.046;10.676;2023-10-09T08:17:58;2.27;;;1.10;;
11125;SDS011;5617;54.046;10.676;2023-10-09T08:20:10;2.37;;;1.40;;
11125;SDS011;5617;54.046;10.676;2023-10-09T08:22:21;1.87;;;1.47;;
11125;SDS011;5617;54.046;10.676;2023-10-09T08:24:49;3.10;;;1.40;;
11125;SDS011;5617;54.046;10.676;2023-10-09T08:27:02;1.67;;;1.30;;
11125;SDS011;5617;54.046;10.676;2023-10-09T08:29:26;1.93;;;1.40;;
11125;SDS011;5617;54.046;10.676;2023-10-09T08:31:42;1.93;;;1.30;;
11125;SDS011;5617;54.046;10.676;2023-10-09T08:33:52;2.63;;;1.40;;
11125;SDS011;5617;54.046;10.676;2023-10-09T08:36:09;2.40;;;1.40;;
11125;SDS011;5617;54.046;10.676;2023-10-09T08:38:22;1.57;;;1.20;;
11125;SDS011;5617;54.046;10.676;2023-10-09T08:40:31;1.77;;;1.40;;
11125;SDS011;5617;54.046;10.676;2023-10-09T08:42:39;2.43;;;1.30;;
11125;SDS011;5617;54.046;10.676;2023-10-09T08:44:47;3.40;;;1.50;;
11125;SDS011;5617;54.046;10.676;2023-10-09T08:46:56;3.03;;;1.50;;
11125;SDS011;5617;54.046;10.676;2023-10-09T08:49:05;2.47;;;1.43;;
11125;SDS011;5617;54.046;10.676;2023-10-09T08:51:16;2.33;;;1.50;;
11125;SDS011;5617;54.046;10.676;2023-10-09T08:53:26;2.43;;;1.70;;
11125;SDS011;5617;54.046;10.676;2023-10-09T08:55:34;4.23;;;1.60;;
11125;SDS011;5617;54.046;10.676;2023-10-09T08:57:44;1.70;;;1.60;;
11125;SDS011;5617;54.046;10.676;2023-10-09T08:59:52;4.50;;;2.07;;
11125;SDS011;5617;54.046;10.676;2023-10-09T09:02:01;2.90;;;1.80;;
11125;SDS011;5617;54.046;10.676;2023-10-09T09:04:10;2.80;;;1.57;;
11125;SDS011;5617;54.046;10.676;2023-10-09T09:06:18;2.40;;;1.77;;
11125;SDS011;5617;54.046;10.676;2023-10-09T09:08:25;2.57;;;1.90;;
11125;SDS011;5617;54.046;10.676;2023-10-09T09:10:34;1.90;;;1.70;;
11125;SDS011;5617;54.046;10.676;2023-10-09T09:12:45;4.33;;;1.80;;
11125;SDS011;5617;54.046;10.676;2023-10-09T09:14:53;2.53;;;1.97;;
11125;SDS011;5617;54.046;10.676;2023-10-09T09:17:04;3.67;;;1.87;;
11125;SDS011;5617;54.046;10.676;2023-10-09T09:19:17;4.27;;;2.07;;
11125;SDS011;5617;54.046;10.676;2023-10-09T09:21:25;2.60;;;2.20;;
11125;SDS011;5617;54.046;10.676;2023-10-09T09:23:33;2.77;;;1.70;;
11125;SDS011;5617;54.046;10.676;2023-10-09T09:25:41;3.17;;;2.00;;
11125;SDS011;5617;54.046;10.676;2023-10-09T09:27:51;2.63;;;1.70;;
11125;SDS011;5617;54.046;10.676;2023-10-09T09:30:04;2.53;;;2.20;;
11125;SDS011;5617;54.046;10.676;2023-10-09T09:32:32;3.83;;;2.20;;
11125;SDS011;5617;54.046;10.676;2023-10-09T09:34:43;2.73;;;2.10;;
11125;SDS011;5617;54.046;10.676;2023-10-09T09:36:55;2.93;;;2.10;;
11125;SDS011;5617;54.046;10.676;2023-10-09T09:39:05;3.17;;;2.23;;
11125;SDS011;5617;54.046;10.676;2023-10-09T09:41:25;2.70;;;2.07;;
11125;SDS011;5617;54.046;10.676;2023-10-09T09:43:33;3.20;;;2.27;;
11125;SDS011;5617;54.046;10.676;2023-10-09T09:45:42;3.40;;;2.30;;
11125;SDS011;5617;54.046;10.676;2023-10-09T09:47:56;3.70;;;2.80;;
11125;SDS011;5617;54.046;10.676;2023-10-09T09:50:12;3.90;;;2.60;;
11125;SDS011;5617;54.046;10.676;2023-10-09T09:52:30;2.47;;;2.27;;
11125;SDS011;5617;54.046;10.676;2023-10-09T09:54:44;2.43;;;2.10;;
11125;SDS011;5617;54.046;10.676;2023-10-09T09:56:56;3.00;;;2.60;;
11125;SDS011;5617;54.046;10.676;2023-10-09T09:59:06;4.00;;;2.67;;
11125;SDS011;5617;54.046;10.676;2023-10-09T10:01:20;3.03;;;2.57;;
11125;SDS011;5617;54.046;10.676;2023-10-09T10:03:36;2.47;;;2.10;;
11125;SDS011;5617;54.046;10.676;2023-10-09T10:05:50;3.23;;;2.27;;
11125;SDS011;5617;54.046;10.676;2023-10-09T10:08:03;2.77;;;2.50;;
11125;SDS011;5617;54.046;10.676;2023-10-09T10:10:34;3.37;;;2.50;;
11125;SDS011;5617;54.046;10.676;2023-10-09T10:12:54;3.77;;;2.50;;
11125;SDS011;5617;54.046;10.676;2023-10-09T10:15:07;4.27;;;2.30;;
11125;SDS011;5617;54.046;10.676;2023-10-09T10:17:15;3.80;;;2.10;;
11125;SDS011;5617;54.046;10.676;2023-10-09T10:22:30;3.17;;;2.53;;
11125;SDS011;5617;54.046;10.676;2023-10-09T10:24:40;3.40;;;2.20;;
11125;SDS011;5617;54.046;10.676;2023-10-09T10:27:14;2.53;;;2.17;;
11125;SDS011;5617;54.046;10.676;2023-10-09T10:29:30;4.10;;;2.63;;
11125;SDS011;5617;54.046;10.676;2023-10-09T10:31:51;2.80;;;2.40;;
11125;SDS011;5617;54.046;10.676;2023-10-09T10:34:03;5.00;;;2.70;;
11125;SDS011;5617;54.046;10.676;2023-10-09T10:36:18;2.60;;;2.40;;
11125;SDS011;5617;54.046;10.676;2023-10-09T10:38:32;6.10;;;2.70;;
11125;SDS011;5617;54.046;10.676;2023-10-09T10:40:42;2.97;;;2.50;;
11125;SDS011;5617;54.046;10.676;2023-10-09T10:42:52;2.93;;;2.50;;
11125;SDS011;5617;54.046;10.676;2023-10-09T10:45:17;2.97;;;2.30;;
11125;SDS011;5617;54.046;10.676;2023-10-09T10:47:43;3.03;;;2.20;;
11125;SDS011;5617;54.046;10.676;2023-10-09T10:49:54;2.33;;;2.13;;
11125;SDS011;5617;54.046;10.676;2023-10-09T10:52:07;2.53;;;2.30;;
11125;SDS011;5617;54.046;10.676;2023-10-09T10:54:25;2.50;;;2.30;;
11125;SDS011;5617;54.046;10.676;2023-10-09T10:56:51;2.27;;;2.10;;
11125;SDS011;5617;54.046;10.676;2023-10-09T10:58:58;3.10;;;2.60;;
11125;SDS011;5617;54.046;10.676;2023-10-09T11:01:18;2.57;;;2.33;;
11125;SDS011;5617;54.046;10.676;2023-10-09T11:03:30;2.43;;;2.23;;
11125;SDS011;5617;54.046;10.676;2023-10-09T11:05:42;3.07;;;2.20;;
11125;SDS011;5617;54.046;10.676;2023-10-09T11:07:58;2.30;;;2.10;;
11125;SDS011;5617;54.046;10.676;2023-10-09T11:10:07;2.40;;;2.20;;
11125;SDS011;5617;54.046;10.676;2023-10-09T11:12:16;3.43;;;2.30;;
11125;SDS011;5617;54.046;10.676;2023-10-09T11:14:29;3.03;;;2.07;;
11125;SDS011;5617;54.046;10.676;2023-10-09T11:16:48;2.03;;;1.90;;
11125;SDS011;5617;54.046;10.676;2023-10-09T11:18:56;2.83;;;2.40;;
11125;SDS011;5617;54.046;10.676;2023-10-09T11:21:03;3.03;;;2.20;;
11125;SDS011;5617;54.046;10.676;2023-10-09T11:23:29;2.50;;;2.23;;
11125;SDS011;5617;54.046;10.676;2023-10-09T11:25:45;2.40;;;2.00;;
11125;SDS011;5617;54.046;10.676;2023-10-09T11:27:58;2.40;;;2.20;;
11125;SDS011;5617;54.046;10.676;2023-10-09T11:30:30;2.63;;;2.20;;
11125;SDS011;5617;54.046;10.676;2023-10-09T11:32:39;4.07;;;3.10;;
11125;SDS011;5617;54.046;10.676;2023-10-09T11:34:47;4.20;;;3.40;;
11125;SDS011;5617;54.046;10.676;2023-10-09T11:36:58;3.50;;;3.20;;
11125;SDS011;5617;54.046;10.676;2023-10-09T11:39:12;2.63;;;2.43;;
11125;SDS011;5617;54.046;10.676;2023-10-09T11:41:39;2.63;;;2.43;;
11125;SDS011;5617;54.046;10.676;2023-10-09T11:43:49;3.43;;;2.60;;
11125;SDS011;5617;54.046;10.676;2023-10-09T11:46:07;2.80;;;2.60;;
11125;SDS011;5617;54.046;10.676;2023-10-09T11:48:17;2.43;;;2.23;;
11125;SDS011;5617;54.046;10.676;2023-10-09T11:50:39;3.47;;;2.63;;
11125;SDS011;5617;54.046;10.676;2023-10-09T11:52:58;2.73;;;2.53;;
11125;SDS011;5617;54.046;10.676;2023-10-09T11:55:25;2.20;;;2.03;;
11125;SDS011;5617;54.046;10.676;2023-10-09T11:57:40;2.47;;;2.27;;
11125;SDS011;5617;54.046;10.676;2023-10-09T11:59:48;2.47;;;2.23;;
11125;SDS011;5617;54.046;10.676;2023-10-09T12:01:58;2.40;;;2.20;;
11125;SDS011;5617;54.046;10.676;2023-10-09T12:04:08;2.70;;;2.27;;
11125;SDS011;5617;54.046;10.676;2023-10-09T12:06:19;2.33;;;2.13;;
11125;SDS011;5617;54.046;10.676;2023-10-09T12:08:29;3.97;;;2.03;;
11125;SDS011;5617;54.046;10.676;2023-10-09T12:10:39;2.53;;;2.10;;
11125;SDS011;5617;54.046;10.676;2023-10-09T12:12:47;2.47;;;2.27;;
11125;SDS011;5617;54.046;10.676;2023-10-09T12:14:54;2.87;;;2.57;;
11125;SDS011;5617;54.046;10.676;2023-10-09T12:17:04;3.23;;;2.20;;
11125;SDS011;5617;54.046;10.676;2023-10-09T12:19:11;2.20;;;2.10;;
11125;SDS011;5617;54.046;10.676;2023-10-09T12:21:20;2.37;;;2.13;;
11125;SDS011;5617;54.046;10.676;2023-10-09T12:23:29;2.10;;;2.00;;
11125;SDS011;5617;54.046;10.676;2023-10-09T12:25:43;2.07;;;1.87;;
11125;SDS011;5617;54.046;10.676;2023-10-09T12:27:52;2.13;;;1.93;;
11125;SDS011;5617;54.046;10.676;2023-10-09T12:30:03;2.27;;;2.07;;
11125;SDS011;5617;54.046;10.676;2023-10-09T12:32:12;2.97;;;2.30;;
11125;SDS011;5617;54.046;10.676;2023-10-09T12:34:25;3.07;;;2.80;;
11125;SDS011;5617;54.046;10.676;2023-10-09T12:36:33;2.60;;;2.40;;
11125;SDS011;5617;54.046;10.676;2023-10-09T12:38:43;1.90;;;1.80;;
11125;SDS011;5617;54.046;10.676;2023-10-09T12:41:01;1.70;;;1.60;;
11125;SDS011;5617;54.046;10.676;2023-10-09T12:43:14;1.90;;;1.80;;
11125;SDS011;5617;54.046;10.676;2023-10-09T12:45:23;1.90;;;1.80;;
11125;SDS011;5617;54.046;10.676;2023-10-09T12:47:35;1.80;;;1.70;;
11125;SDS011;5617;54.046;10.676;2023-10-09T12:49:44;2.10;;;2.00;;
11125;SDS011;5617;54.046;10.676;2023-10-09T12:51:51;2.00;;;1.80;;
11125;SDS011;5617;54.046;10.676;2023-10-09T12:53:59;1.73;;;1.63;;
11125;SDS011;5617;54.046;10.676;2023-10-09T12:56:10;1.90;;;1.80;;
11125;SDS011;5617;54.046;10.676;2023-10-09T12:58:19;3.30;;;2.00;;
11125;SDS011;5617;54.046;10.676;2023-10-09T13:00:27;2.30;;;2.10;;
11125;SDS011;5617;54.046;10.676;2023-10-09T13:02:38;2.57;;;2.27;;
11125;SDS011;5617;54.046;10.676;2023-10-09T13:04:49;2.40;;;2.20;;
11125;SDS011;5617;54.046;10.676;2023-10-09T13:06:58;3.03;;;2.70;;
11125;SDS011;5617;54.046;10.676;2023-10-09T13:09:09;2.80;;;2.60;;
11125;SDS011;5617;54.046;10.676;2023-10-09T13:11:18;2.90;;;2.70;;
11125;SDS011;5617;54.046;10.676;2023-10-09T13:13:31;3.10;;;2.80;;
11125;SDS011;5617;54.046;10.676;2023-10-09T13:15:53;3.20;;;2.87;;
11125;SDS011;5617;54.046;10.676;2023-10-09T13:18:01;2.97;;;2.77;;
11125;SDS011;5617;54.046;10.676;2023-10-09T13:20:13;2.77;;;2.57;;
11125;SDS011;5617;54.046;10.676;2023-10-09T13:22:22;2.50;;;2.30;;
11125;SDS011;5617;54.046;10.676;2023-10-09T13:24:31;2.77;;;2.33;;
11125;SDS011;5617;54.046;10.676;2023-10-09T13:26:40;3.43;;;2.37;;
11125;SDS011;5617;54.046;10.676;2023-10-09T13:28:51;2.93;;;2.63;;
11125;SDS011;5617;54.046;10.676;2023-10-09T13:30:59;2.50;;;2.30;;